Time;durP1;ratioP1;P1;durP2;ratioP2;P2;SDS_P1;SDS_P2;PMS_P1;PMS_P2;Temp;Humidity;BMP_temperature;BMP_pressure;BME280_temperature;BME280_humidity;BME280_pressure;Samples;Min_cycle;Max_cycle;Signal;HPM_P1;HPM_P2
2023/01/02 00:00:14;;;;;;;7.63;2.50;;;;;;;;;;10524087;28;20036;-75
2023/01/02 00:05:22;;;;;;;7.30;2.38;;;;;;;;;;10528803;28;20044;-75
2023/01/02 00:10:25;;;;;;;6.88;3.13;;;;;;;;;;10531405;28;20035;-75
2023/01/02 00:15:29;;;;;;;7.70;2.65;;;;;;;;;;10533042;28;20066;-76
2023/01/02 00:20:33;;;;;;;7.10;2.30;;;;;;;;;;10527476;28;20456;-76
2023/01/02 00:25:36;;;;;;;7.55;3.00;;;;;;;;;;10520730;28;20165;-76
2023/01/02 00:30:40;;;;;;;7.97;2.95;;;;;;;;;;10520188;28;20048;-76
2023/01/02 00:35:43;;;;;;;;;;;;;;;;;;10528190;28;20059;-76
2023/01/02 00:40:45;;;;;;;6.05;2.40;;;;;;;;;;10521158;28;20010;-76
2023/01/02 00:45:50;;;;;;;6.65;2.70;;;;;;;;;;10527411;28;20058;-76
2023/01/02 00:50:52;;;;;;;;;;;;;;;;;;10523932;28;20048;-76
2023/01/02 00:55:55;;;;;;;5.28;2.15;;;;;;;;;;10522650;28;19923;-75
2023/01/02 01:00:59;;;;;;;5.55;2.85;;;;;;;;;;10529675;28;20048;-76
2023/01/02 01:06:06;;;;;;;5.35;2.50;;;;;;;;;;10539342;28;20045;-75
2023/01/02 01:11:09;;;;;;;10.90;3.40;;;;;;;;;;10537619;28;20049;-75
2023/01/02 01:16:15;;;;;;;4.88;2.90;;;;;;;;;;10552957;28;20040;-75
2023/01/02 01:21:20;;;;;;;6.30;2.80;;;;;;;;;;10560341;28;20044;-75
2023/01/02 01:26:23;;;;;;;7.70;2.78;;;;;;;;;;10579345;28;20072;-75
2023/01/02 01:31:27;;;;;;;7.50;3.50;;;;;;;;;;10579999;28;20051;-75
2023/01/02 01:36:29;;;;;;;5.80;2.95;;;;;;;;;;10584118;28;20032;-75
2023/01/02 01:41:32;;;;;;;8.30;2.90;;;;;;;;;;10572318;28;20525;-76
2023/01/02 01:46:37;;;;;;;5.45;2.72;;;;;;;;;;10578390;28;20141;-76
2023/01/02 01:51:43;;;;;;;6.25;3.00;;;;;;;;;;10565604;28;20073;-75
2023/01/02 01:56:47;;;;;;;8.30;2.80;;;;;;;;;;10560214;28;20074;-74
2023/01/02 02:01:51;;;;;;;6.60;2.72;;;;;;;;;;10550993;28;20134;-74
2023/01/02 02:06:55;;;;;;;8.32;2.70;;;;;;;;;;10552969;28;22062;-75
2023/01/02 02:11:57;;;;;;;4.80;2.08;;;;;;;;;;10552421;28;20050;-74
2023/01/02 02:17:04;;;;;;;5.68;2.70;;;;;;;;;;10533899;28;20044;-75
2023/01/02 02:22:28;;;;;;;4.15;1.50;;;;;;;;;;10519070;28;20044;-76
2023/01/02 02:27:51;;;;;;;6.13;2.15;;;;;;;;;;10520609;28;20506;-75
2023/01/02 02:33:04;;;;;;;5.30;2.40;;;;;;;;;;10529573;28;20113;-76
2023/01/02 02:38:08;;;;;;;6.85;2.90;;;;;;;;;;10520792;28;20036;-75
2023/01/02 02:43:16;;;;;;;7.30;2.45;;;;;;;;;;10520397;28;20048;-76
2023/01/02 02:48:24;;;;;;;2.75;1.30;;;;;;;;;;10530372;28;20039;-75
2023/01/02 02:53:31;;;;;;;4.63;2.47;;;;;;;;;;10521264;28;20044;-75
2023/01/02 02:58:34;;;;;;;7.88;2.47;;;;;;;;;;10518098;28;20040;-75
2023/01/02 03:03:38;;;;;;;2.97;1.42;;;;;;;;;;10517689;28;20505;-76
2023/01/02 03:08:42;;;;;;;5.20;2.17;;;;;;;;;;10526526;28;20052;-75
2023/01/02 03:13:51;;;;;;;7.38;2.78;;;;;;;;;;10525231;28;20217;-76
2023/01/02 03:18:58;;;;;;;4.80;2.30;;;;;;;;;;10525333;28;20061;-76
2023/01/02 03:24:03;;;;;;;5.00;1.90;;;;;;;;;;10533199;28;20047;-75
2023/01/02 03:29:08;;;;;;;4.38;1.88;;;;;;;;;;10532601;28;20415;-76
2023/01/02 03:34:13;;;;;;;5.70;2.15;;;;;;;;;;10539775;28;20040;-75
2023/01/02 03:39:17;;;;;;;2.72;1.25;;;;;;;;;;10528908;28;20469;-74
2023/01/02 03:44:22;;;;;;;3.80;1.40;;;;;;;;;;10531122;28;20056;-75
2023/01/02 03:49:28;;;;;;;6.65;1.30;;;;;;;;;;10536206;28;20105;-75
2023/01/02 03:54:31;;;;;;;2.95;1.25;;;;;;;;;;10524711;28;20062;-76
2023/01/02 03:59:38;;;;;;;1.15;0.77;;;;;;;;;;10522319;28;20036;-75
2023/01/02 04:04:48;;;;;;;1.98;1.20;;;;;;;;;;10519675;28;20154;-76
2023/01/02 04:09:53;;;;;;;2.42;1.23;;;;;;;;;;10524381;28;20036;-76
2023/01/02 04:14:57;;;;;;;3.60;1.45;;;;;;;;;;10527311;28;20055;-75
2023/01/02 04:20:03;;;;;;;4.00;1.50;;;;;;;;;;10533800;28;20040;-75
2023/01/02 04:25:07;;;;;;;2.70;1.10;;;;;;;;;;10526387;28;20074;-75
2023/01/02 04:30:10;;;;;;;2.33;1.20;;;;;;;;;;10524036;28;20121;-74
2023/01/02 04:35:16;;;;;;;2.45;1.70;;;;;;;;;;10532227;28;20044;-75
2023/01/02 04:40:21;;;;;;;4.00;2.00;;;;;;;;;;10523447;28;20550;-74
2023/01/02 04:45:24;;;;;;;3.67;1.80;;;;;;;;;;10522091;28;20052;-74
2023/01/02 04:50:28;;;;;;;3.97;1.85;;;;;;;;;;10511062;28;20543;-76
2023/01/02 04:55:30;;;;;;;6.50;1.90;;;;;;;;;;10517726;28;20073;-75
2023/01/02 05:00:33;;;;;;;5.03;1.60;;;;;;;;;;10518693;28;20069;-76
2023/01/02 05:05:37;;;;;;;5.15;1.80;;;;;;;;;;10519922;28;20043;-76
2023/01/02 05:10:39;;;;;;;3.47;1.92;;;;;;;;;;10517062;28;20036;-76
2023/01/02 05:15:42;;;;;;;3.85;1.73;;;;;;;;;;10524307;28;20055;-76
2023/01/02 05:20:46;;;;;;;4.20;1.88;;;;;;;;;;10527339;28;20036;-75
2023/01/02 05:25:49;;;;;;;10.30;2.38;;;;;;;;;;10539764;28;20177;-75
2023/01/02 05:30:51;;;;;;;3.15;1.40;;;;;;;;;;10522953;28;20126;-75
2023/01/02 05:35:56;;;;;;;2.47;1.63;;;;;;;;;;10524107;28;20382;-75
2023/01/02 05:41:02;;;;;;;4.82;2.15;;;;;;;;;;10517167;28;20043;-75
2023/01/02 05:46:09;;;;;;;3.70;1.77;;;;;;;;;;10541092;28;20143;-75
2023/01/02 05:51:14;;;;;;;7.93;1.85;;;;;;;;;;10524598;28;20056;-76
2023/01/02 05:56:17;;;;;;;5.72;1.85;;;;;;;;;;10534226;28;20052;-77
2023/01/02 06:01:21;;;;;;;2.47;1.70;;;;;;;;;;10521975;28;20101;-77
2023/01/02 06:06:25;;;;;;;4.20;2.17;;;;;;;;;;10524557;28;20050;-75
2023/01/02 06:11:28;;;;;;;;;;;;;;;;;;10536659;28;20094;-75
2023/01/02 06:16:30;;;;;;;5.55;2.10;;;;;;;;;;10528781;28;19927;-76
2023/01/02 06:21:34;;;;;;;5.85;2.08;;;;;;;;;;10535230;28;20576;-76
2023/01/02 06:26:37;;;;;;;4.45;2.13;;;;;;;;;;10533945;28;20044;-75
2023/01/02 06:31:40;;;;;;;4.32;1.95;;;;;;;;;;10529828;28;20053;-76
2023/01/02 06:36:48;;;;;;;5.45;2.20;;;;;;;;;;10527857;28;20135;-76
2023/01/02 06:41:52;;;;;;;6.40;2.00;;;;;;;;;;10535990;28;20493;-76
2023/01/02 06:46:54;;;;;;;4.03;2.30;;;;;;;;;;10533173;28;20051;-76
2023/01/02 06:51:59;;;;;;;3.88;1.80;;;;;;;;;;10530185;28;20044;-75
2023/01/02 06:57:02;;;;;;;6.38;2.00;;;;;;;;;;10532345;28;20040;-75
2023/01/02 07:02:04;;;;;;;5.45;1.85;;;;;;;;;;10525824;28;20048;-76
2023/01/02 07:07:08;;;;;;;7.78;2.10;;;;;;;;;;10524750;28;20056;-75
2023/01/02 07:12:11;;;;;;;7.03;2.00;;;;;;;;;;10533897;28;20251;-75
2023/01/02 07:17:14;;;;;;;5.50;2.20;;;;;;;;;;10532833;28;20088;-75
2023/01/02 07:22:18;;;;;;;9.93;2.67;;;;;;;;;;10527601;28;20055;-76
2023/01/02 07:27:20;;;;;;;11.02;2.42;;;;;;;;;;10510336;28;20036;-75
2023/01/02 07:32:23;;;;;;;5.32;2.22;;;;;;;;;;10526561;28;20043;-76
2023/01/02 07:37:30;;;;;;;4.28;2.13;;;;;;;;;;10526329;28;20139;-75
2023/01/02 07:42:34;;;;;;;7.00;2.40;;;;;;;;;;10531419;28;20607;-77
2023/01/02 07:47:38;;;;;;;6.30;2.80;;;;;;;;;;10528054;28;20036;-77
2023/01/02 07:52:43;;;;;;;10.70;3.35;;;;;;;;;;10520049;28;20044;-76
2023/01/02 07:57:48;;;;;;;11.25;3.67;;;;;;;;;;10529355;28;20060;-77
2023/01/02 08:02:53;;;;;;;6.78;3.33;;;;;;;;;;10522322;28;20044;-77
2023/01/02 08:07:57;;;;;;;8.45;2.67;;;;;;;;;;10522525;28;20059;-75
2023/01/02 08:13:00;;;;;;;7.05;3.00;;;;;;;;;;10524254;28;20051;-76
2023/01/02 08:18:03;;;;;;;5.93;2.42;;;;;;;;;;10518485;28;20036;-75
2023/01/02 08:23:07;;;;;;;7.32;3.15;;;;;;;;;;10517762;28;20048;-75
2023/01/02 08:28:10;;;;;;;8.75;2.78;;;;;;;;;;10515610;28;20172;-76
2023/01/02 08:33:13;;;;;;;4.72;2.47;;;;;;;;;;10519755;28;20501;-75
2023/01/02 08:38:17;;;;;;;5.95;2.70;;;;;;;;;;10510775;28;20048;-76
2023/01/02 08:43:20;;;;;;;5.82;2.55;;;;;;;;;;10524022;28;20048;-76
2023/01/02 08:48:23;;;;;;;5.33;2.80;;;;;;;;;;10526304;28;20108;-77
2023/01/02 08:53:27;;;;;;;4.22;2.88;;;;;;;;;;10517788;28;20043;-77
2023/01/02 08:58:29;;;;;;;9.82;3.55;;;;;;;;;;10512303;28;20057;-76
2023/01/02 09:03:32;;;;;;;7.35;3.20;;;;;;;;;;10516760;28;20182;-77
2023/01/02 09:08:36;;;;;;;6.57;3.63;;;;;;;;;;10522815;28;20083;-76
2023/01/02 09:13:41;;;;;;;6.50;3.55;;;;;;;;;;10522244;28;20561;-76
2023/01/02 09:18:44;;;;;;;5.43;3.45;;;;;;;;;;10517910;28;20147;-76
2023/01/02 09:23:47;;;;;;;11.90;4.13;;;;;;;;;;10538483;28;20076;-77
2023/01/02 09:28:50;;;;;;;8.90;3.90;;;;;;;;;;10528973;28;20457;-76
2023/01/02 09:33:53;;;;;;;;;;;;;;;;;;10531801;28;20102;-77
2023/01/02 09:38:57;;;;;;;7.80;4.05;;;;;;;;;;10531869;28;19924;-77
2023/01/02 09:44:05;;;;;;;6.95;3.65;;;;;;;;;;10533078;28;20113;-76
2023/01/02 09:49:11;;;;;;;10.77;3.97;;;;;;;;;;10528308;28;20032;-76
2023/01/02 09:54:18;;;;;;;8.88;4.47;;;;;;;;;;10523178;28;20043;-76
2023/01/02 09:59:24;;;;;;;9.10;4.70;;;;;;;;;;10532358;28;20044;-76
2023/01/02 10:04:33;;;;;;;7.70;3.80;;;;;;;;;;10528911;28;20143;-76
2023/01/02 10:09:41;;;;;;;4.03;2.90;;;;;;;;;;10533388;28;20040;-76
2023/01/02 10:14:50;;;;;;;5.43;3.13;;;;;;;;;;10530069;28;20053;-76
2023/01/02 10:19:56;;;;;;;4.85;3.20;;;;;;;;;;10522225;28;20036;-77
2023/01/02 10:25:03;;;;;;;3.70;2.28;;;;;;;;;;10529591;28;20455;-77
2023/01/02 10:30:08;;;;;;;3.22;2.35;;;;;;;;;;10523709;28;20042;-77
2023/01/02 10:35:16;;;;;;;2.35;2.15;;;;;;;;;;10522841;28;20039;-77
2023/01/02 10:40:20;;;;;;;2.28;1.90;;;;;;;;;;10527649;28;20393;-77
2023/01/02 10:45:23;;;;;;;4.75;1.73;;;;;;;;;;10532259;28;20510;-76
2023/01/02 10:50:28;;;;;;;2.80;1.80;;;;;;;;;;10520463;28;20482;-77
2023/01/02 10:55:33;;;;;;;2.97;1.58;;;;;;;;;;10519999;28;20036;-78
2023/01/02 11:00:36;;;;;;;4.43;1.90;;;;;;;;;;10519660;28;20113;-77
2023/01/02 11:05:43;;;;;;;7.80;2.47;;;;;;;;;;10526597;28;20054;-76
2023/01/02 11:10:47;;;;;;;5.25;2.58;;;;;;;;;;10523613;28;20097;-77
2023/01/02 11:15:51;;;;;;;7.43;2.28;;;;;;;;;;10525363;28;20048;-75
2023/01/02 11:20:55;;;;;;;4.15;2.13;;;;;;;;;;10528126;28;20090;-76
2023/01/02 11:26:00;;;;;;;4.68;2.17;;;;;;;;;;10516004;28;20052;-77
2023/01/02 11:31:04;;;;;;;3.67;1.63;;;;;;;;;;10520527;28;20036;-77
2023/01/02 11:36:14;;;;;;;3.55;1.90;;;;;;;;;;10515237;28;20075;-77
2023/01/02 11:46:45;;;;;;;5.95;1.80;;;;;;;;;;10524119;28;20048;-77
2023/01/02 11:51:50;;;;;;;3.97;1.65;;;;;;;;;;10520686;28;20047;-77
2023/01/02 11:56:54;;;;;;;5.10;1.88;;;;;;;;;;10524190;28;20116;-76
2023/01/02 12:01:59;;;;;;;6.57;2.83;;;;;;;;;;10519521;28;20486;-77
2023/01/02 12:07:08;;;;;;;5.70;2.03;;;;;;;;;;10524227;28;20040;-76
2023/01/02 12:12:17;;;;;;;2.88;1.25;;;;;;;;;;10521327;28;20052;-76
2023/01/02 12:17:22;;;;;;;3.58;1.63;;;;;;;;;;10520066;28;20055;-76
2023/01/02 12:22:49;;;;;;;3.50;1.63;;;;;;;;;;10519699;28;20048;-76
2023/01/02 12:27:55;;;;;;;2.80;1.50;;;;;;;;;;10522940;28;20051;-75
2023/01/02 12:33:13;;;;;;;4.72;1.70;;;;;;;;;;10524299;28;20055;-75
2023/01/02 12:38:22;;;;;;;2.15;1.50;;;;;;;;;;10518334;28;20040;-77
2023/01/02 12:43:49;;;;;;;2.08;1.40;;;;;;;;;;10526239;28;20040;-76
2023/01/02 12:49:01;;;;;;;2.35;1.27;;;;;;;;;;10507321;28;20048;-76
2023/01/02 12:54:18;;;;;;;4.15;1.30;;;;;;;;;;10523797;28;20093;-76
2023/01/02 12:59:34;;;;;;;4.28;1.40;;;;;;;;;;10537316;28;20083;-76
2023/01/02 13:04:40;;;;;;;2.25;0.90;;;;;;;;;;10533043;28;20040;-74
2023/01/02 13:09:44;;;;;;;3.65;1.30;;;;;;;;;;10527186;28;20127;-75
2023/01/02 13:14:50;;;;;;;1.92;1.15;;;;;;;;;;10520396;28;20050;-75
2023/01/02 13:19:57;;;;;;;2.42;1.23;;;;;;;;;;10525977;28;20580;-75
2023/01/02 13:25:00;;;;;;;3.13;1.30;;;;;;;;;;10526360;27;20047;-76
2023/01/02 13:30:03;;;;;;;1.60;0.68;;;;;;;;;;10526536;28;22197;-75
2023/01/02 13:35:10;;;;;;;2.87;1.10;;;;;;;;;;10524411;28;20580;-75
2023/01/02 13:40:20;;;;;;;2.80;1.40;;;;;;;;;;10518958;28;20306;-75
2023/01/02 13:45:24;;;;;;;4.80;1.05;;;;;;;;;;10533251;28;20073;-75
2023/01/02 13:50:29;;;;;;;1.70;0.90;;;;;;;;;;10526464;28;20094;-75
2023/01/02 13:55:34;;;;;;;3.30;1.00;;;;;;;;;;10528430;28;20052;-76
2023/01/02 14:00:37;;;;;;;5.30;0.90;;;;;;;;;;10523695;28;20119;-77
2023/01/02 14:05:58;;;;;;;5.43;1.10;;;;;;;;;;10526034;28;20547;-76
2023/01/02 14:11:07;;;;;;;5.00;1.02;;;;;;;;;;10527532;28;20028;-76
2023/01/02 14:16:18;;;;;;;4.75;1.17;;;;;;;;;;10529085;28;20063;-75
2023/01/02 14:21:31;;;;;;;1.67;1.20;;;;;;;;;;10525251;28;20036;-76
2023/01/02 14:26:35;;;;;;;1.67;1.02;;;;;;;;;;10528919;28;20035;-75
2023/01/02 14:31:39;;;;;;;5.57;1.35;;;;;;;;;;10531502;28;20036;-76
2023/01/02 14:36:42;;;;;;;;;;;;;;;;;;10530273;28;20056;-77
2023/01/02 14:47:34;;;;;;;8.02;2.22;;;;;;;;;;10525751;28;20405;-77
2023/01/02 14:52:38;;;;;;;2.33;1.20;;;;;;;;;;10535534;28;20497;-77
2023/01/02 14:57:47;;;;;;;3.85;1.83;;;;;;;;;;10523741;28;20240;-76
2023/01/02 15:02:52;;;;;;;1.15;0.60;;;;;;;;;;10525863;28;20040;-77
2023/01/02 15:07:58;;;;;;;1.75;1.08;;;;;;;;;;10530256;28;20125;-76
2023/01/02 15:13:06;;;;;;;3.30;1.15;;;;;;;;;;10527279;28;20105;-76
2023/01/02 15:18:12;;;;;;;0.98;0.88;;;;;;;;;;10521214;28;20270;-76
2023/01/02 15:23:16;;;;;;;2.80;1.08;;;;;;;;;;10518877;28;20440;-76
2023/01/02 15:28:25;;;;;;;2.53;1.42;;;;;;;;;;10524836;28;20175;-75
2023/01/02 15:33:28;;;;;;;0.85;0.73;;;;;;;;;;10526359;28;20054;-76
2023/01/02 15:38:31;;;;;;;2.17;1.40;;;;;;;;;;10520032;28;20055;-76
2023/01/02 15:48:55;;;;;;;3.72;1.38;;;;;;;;;;10521033;28;20111;-77
2023/01/02 15:53:58;;;;;;;2.03;1.10;;;;;;;;;;10520286;28;20040;-76
2023/01/02 15:59:22;;;;;;;1.90;1.08;;;;;;;;;;10527867;28;20055;-76
2023/01/02 16:04:26;;;;;;;6.68;1.70;;;;;;;;;;10522139;28;20048;-76
2023/01/02 16:09:30;;;;;;;3.05;1.75;;;;;;;;;;10523674;28;20116;-76
2023/01/02 16:14:36;;;;;;;2.85;0.93;;;;;;;;;;10524073;28;20589;-77
2023/01/02 16:19:44;;;;;;;4.45;1.33;;;;;;;;;;10530558;28;20513;-77
2023/01/02 16:24:49;;;;;;;3.85;1.48;;;;;;;;;;10522663;28;20036;-77
2023/01/02 16:29:54;;;;;;;1.55;1.00;;;;;;;;;;10532739;28;20131;-77
2023/01/02 16:35:15;;;;;;;3.88;1.70;;;;;;;;;;10519569;28;20084;-77
2023/01/02 16:40:51;;;;;;;3.38;1.10;;;;;;;;;;10522178;28;20063;-78
2023/01/02 16:46:08;;;;;;;3.00;1.35;;;;;;;;;;10514143;28;20032;-76
2023/01/02 16:51:13;;;;;;;4.38;2.03;;;;;;;;;;10518201;28;20101;-78
2023/01/02 16:56:16;;;;;;;1.92;1.05;;;;;;;;;;10532289;28;20085;-76
2023/01/02 17:01:20;;;;;;;4.32;1.35;;;;;;;;;;10529119;28;20051;-79
2023/01/02 17:06:23;;;;;;;2.70;1.25;;;;;;;;;;10518587;28;20153;-78
2023/01/02 17:11:26;;;;;;;4.38;1.67;;;;;;;;;;10515292;28;20043;-76
2023/01/02 17:16:30;;;;;;;4.68;1.80;;;;;;;;;;10522431;28;20205;-78
2023/01/02 17:21:32;;;;;;;3.17;1.60;;;;;;;;;;10515088;28;20055;-77
2023/01/02 17:26:35;;;;;;;4.30;1.63;;;;;;;;;;10520579;28;20056;-77
2023/01/02 17:31:39;;;;;;;2.53;1.50;;;;;;;;;;10522739;28;20048;-77
2023/01/02 17:36:42;;;;;;;;;;;;;;;;;;10523370;28;20552;-77
2023/01/02 17:41:45;;;;;;;2.65;1.33;;;;;;;;;;10528570;28;19981;-75
2023/01/02 17:46:48;;;;;;;2.08;0.90;;;;;;;;;;10528990;28;20047;-77
2023/01/02 17:52:12;;;;;;;7.47;1.98;;;;;;;;;;10524454;28;20458;-76
2023/01/02 17:57:15;;;;;;;2.72;0.85;;;;;;;;;;10515356;28;20036;-76
2023/01/02 18:02:19;;;;;;;5.20;2.00;;;;;;;;;;10518511;28;20072;-75
2023/01/02 18:07:22;;;;;;;5.30;1.40;;;;;;;;;;10529767;28;20044;-77
2023/01/02 18:12:25;;;;;;;6.20;1.55;;;;;;;;;;10523462;28;20396;-76
2023/01/02 18:17:29;;;;;;;1.80;0.98;;;;;;;;;;10522552;28;20090;-77
2023/01/02 18:22:31;;;;;;;;;;;;;;;;;;10532757;28;20528;-76
2023/01/02 18:27:34;;;;;;;5.90;1.63;;;;;;;;;;10522114;28;19928;-75
2023/01/02 18:32:39;;;;;;;7.80;2.03;;;;;;;;;;10521517;28;20048;-77
2023/01/02 18:37:42;;;;;;;9.75;2.60;;;;;;;;;;10530114;28;20050;-75
2023/01/02 18:42:46;;;;;;;4.47;1.80;;;;;;;;;;10523089;28;20397;-76
2023/01/02 18:47:53;;;;;;;3.72;1.80;;;;;;;;;;10520078;28;20047;-76
2023/01/02 18:52:56;;;;;;;4.38;1.58;;;;;;;;;;10520978;28;20124;-76
2023/01/02 18:58:00;;;;;;;3.78;1.75;;;;;;;;;;10524825;28;20044;-76
2023/01/02 19:03:10;;;;;;;4.97;1.83;;;;;;;;;;10522863;28;20036;-76
2023/01/02 19:08:15;;;;;;;5.90;1.58;;;;;;;;;;10526460;28;20268;-77
2023/01/02 19:13:19;;;;;;;7.00;1.70;;;;;;;;;;10519995;28;20492;-75
2023/01/02 19:18:24;;;;;;;3.78;1.23;;;;;;;;;;10520638;28;20032;-75
2023/01/02 19:23:31;;;;;;;6.13;1.88;;;;;;;;;;10526849;28;20401;-75
2023/01/02 19:28:35;;;;;;;2.90;1.20;;;;;;;;;;10524860;28;20054;-75
2023/01/02 19:33:40;;;;;;;4.80;1.77;;;;;;;;;;10526960;28;20453;-75
2023/01/02 19:38:42;;;;;;;9.63;2.60;;;;;;;;;;10528979;28;20807;-75
2023/01/02 19:43:45;;;;;;;4.22;2.25;;;;;;;;;;10526592;28;20075;-76
2023/01/02 19:48:49;;;;;;;7.00;2.42;;;;;;;;;;10525612;28;20452;-77
2023/01/02 19:53:51;;;;;;;10.30;2.40;;;;;;;;;;10514447;28;20033;-77
2023/01/02 19:58:57;;;;;;;7.00;1.48;;;;;;;;;;10523859;28;20048;-75
2023/01/02 20:04:01;;;;;;;10.40;2.40;;;;;;;;;;10527116;28;20547;-76
2023/01/02 20:09:04;;;;;;;5.13;1.98;;;;;;;;;;10526631;28;20048;-77
2023/01/02 20:14:07;;;;;;;5.32;1.90;;;;;;;;;;10512639;28;20045;-75
2023/01/02 20:19:11;;;;;;;5.97;2.10;;;;;;;;;;10519401;28;20093;-75
2023/01/02 20:24:14;;;;;;;5.72;1.42;;;;;;;;;;10519158;28;20048;-76
2023/01/02 20:29:16;;;;;;;8.48;1.85;;;;;;;;;;10524539;28;20097;-75
2023/01/02 20:34:21;;;;;;;8.02;1.80;;;;;;;;;;10526760;28;20136;-76
2023/01/02 20:39:23;;;;;;;1.35;0.68;;;;;;;;;;10522663;28;20122;-75
2023/01/02 20:44:26;;;;;;;5.28;2.10;;;;;;;;;;10516487;28;20435;-76
2023/01/02 20:49:30;;;;;;;1.85;1.02;;;;;;;;;;10517456;28;20482;-76
2023/01/02 20:54:32;;;;;;;5.90;1.95;;;;;;;;;;10519013;28;20101;-75
2023/01/02 20:59:38;;;;;;;6.20;2.00;;;;;;;;;;10516230;28;20063;-77
2023/01/02 21:04:43;;;;;;;7.70;2.58;;;;;;;;;;10525801;28;20043;-75
2023/01/02 21:09:46;;;;;;;1.58;1.08;;;;;;;;;;10527842;28;20443;-76
2023/01/02 21:14:48;;;;;;;5.88;2.10;;;;;;;;;;10521265;28;20060;-76
2023/01/02 21:19:52;;;;;;;2.60;1.42;;;;;;;;;;10524381;28;20040;-78
2023/01/02 21:24:55;;;;;;;7.75;1.77;;;;;;;;;;10535253;28;20497;-77
2023/01/02 21:30:01;;;;;;;2.17;1.02;;;;;;;;;;10533444;28;20123;-76
2023/01/02 21:35:05;;;;;;;6.13;1.60;;;;;;;;;;10523440;28;20467;-75
2023/01/02 21:40:08;;;;;;;5.28;2.00;;;;;;;;;;10520963;28;20036;-76
2023/01/02 21:45:11;;;;;;;3.53;1.38;;;;;;;;;;10525547;28;20494;-75
2023/01/02 21:50:15;;;;;;;2.30;0.82;;;;;;;;;;10524053;28;20044;-77
2023/01/02 21:55:18;;;;;;;5.53;1.70;;;;;;;;;;10525322;28;20028;-77
2023/01/02 22:00:21;;;;;;;2.47;1.27;;;;;;;;;;10531517;28;20097;-77
2023/01/02 22:05:25;;;;;;;1.42;0.95;;;;;;;;;;10523495;28;20149;-76
2023/01/02 22:10:28;;;;;;;2.75;1.35;;;;;;;;;;10527842;28;20039;-75
2023/01/02 22:15:30;;;;;;;3.92;1.42;;;;;;;;;;10525078;28;20389;-76
2023/01/02 22:20:34;;;;;;;3.20;1.52;;;;;;;;;;10524079;28;20039;-75
2023/01/02 22:25:37;;;;;;;6.18;1.80;;;;;;;;;;10530898;28;20036;-74
2023/01/02 22:30:39;;;;;;;1.73;1.10;;;;;;;;;;10526530;28;20093;-75
2023/01/02 22:35:44;;;;;;;9.00;1.80;;;;;;;;;;10527338;28;20075;-74
2023/01/02 22:40:46;;;;;;;;;;;;;;;;;;10532726;28;20054;-75
2023/01/02 22:45:50;;;;;;;4.13;1.50;;;;;;;;;;10526683;28;19920;-75
2023/01/02 22:50:56;;;;;;;4.50;1.60;;;;;;;;;;10527147;28;20036;-76
2023/01/02 22:55:59;;;;;;;0.90;0.65;;;;;;;;;;10525289;28;20054;-77
2023/01/02 23:01:03;;;;;;;5.57;2.10;;;;;;;;;;10521193;28;20451;-76
2023/01/02 23:06:07;;;;;;;2.07;1.50;;;;;;;;;;10528808;28;20044;-76
2023/01/02 23:11:10;;;;;;;3.03;1.38;;;;;;;;;;10524068;28;20543;-76
2023/01/02 23:21:35;;;;;;;5.65;1.25;;;;;;;;;;10528209;28;20028;-76
2023/01/02 23:26:39;;;;;;;3.60;1.23;;;;;;;;;;10526464;28;20046;-75
2023/01/02 23:31:41;;;;;;;;;;;;;;;;;;10523659;28;20097;-76
2023/01/02 23:36:46;;;;;;;4.70;1.08;;;;;;;;;;10524028;28;20050;-77
2023/01/02 23:41:49;;;;;;;2.22;1.10;;;;;;;;;;10524042;28;20626;-75
2023/01/02 23:46:52;;;;;;;4.07;1.40;;;;;;;;;;10525924;28;20051;-76
2023/01/02 23:51:56;;;;;;;1.27;0.88;;;;;;;;;;10520538;28;20417;-76
2023/01/02 23:56:59;;;;;;;4.80;1.35;;;;;;;;;;10525145;28;20101;-76
